createdAt,value
2022-08-03T00:12:47.474Z,1017.2
2022-08-03T00:27:43.601Z,1017.1
2022-08-03T00:42:39.492Z,1017.1
2022-08-03T00:57:35.527Z,1017
2022-08-03T01:12:32.077Z,1017
2022-08-03T01:27:28.247Z,1016.9
2022-08-03T01:42:23.747Z,1016.8
2022-08-03T01:57:19.979Z,1016.9
2022-08-03T02:12:16.187Z,1016.9
2022-08-03T02:27:12.472Z,1016.8
2022-08-03T02:42:09.282Z,1016.8
2022-08-03T02:57:05.341Z,1016.8
2022-08-03T03:12:01.252Z,1016.7
2022-08-03T03:26:57.448Z,1016.8
2022-08-03T03:41:53.751Z,1016.9
2022-08-03T03:56:49.786Z,1016.8
2022-08-03T04:11:45.946Z,1016.8
2022-08-03T04:26:41.885Z,1016.8
2022-08-03T04:42:02.151Z,1016.9
2022-08-03T04:56:34.485Z,1016.9
2022-08-03T05:11:30.645Z,1017
2022-08-03T05:26:27.241Z,1017
2022-08-03T05:41:36.721Z,1017
2022-08-03T05:56:19.931Z,1017.1
2022-08-03T06:11:16.815Z,1017
2022-08-03T06:26:13.600Z,1017
2022-08-03T06:41:09.921Z,1017.1
2022-08-03T06:56:06.791Z,1017.1
2022-08-03T07:11:03.243Z,1017
2022-08-03T07:25:59.541Z,1017
2022-08-03T07:40:56.333Z,1017
2022-08-03T07:55:52.921Z,1017
2022-08-03T08:10:56.586Z,1016.8
2022-08-03T08:25:46.044Z,1016.7
2022-08-03T08:40:42.748Z,1016.6
2022-08-03T08:55:56.574Z,1016.6
2022-08-03T09:10:37.119Z,1016.5
2022-08-03T09:25:34.214Z,1016.4
2022-08-03T09:40:31.467Z,1016.4
2022-08-03T09:56:31.007Z,1016.3
2022-08-03T10:10:29.222Z,1016.2
2022-08-03T10:25:22.398Z,1016
2022-08-03T10:40:33.344Z,1015.9
2022-08-03T10:55:16.547Z,1015.6
2022-08-03T11:10:13.155Z,1015.6
2022-08-03T11:25:09.382Z,1015.5
2022-08-03T11:40:06.394Z,1015.5
2022-08-03T11:55:03.462Z,1015.4
2022-08-03T12:10:00.267Z,1015.3
2022-08-03T12:24:56.690Z,1015.1
2022-08-03T12:40:00.852Z,1015.1
2022-08-03T12:54:49.661Z,1015
2022-08-03T13:09:46.409Z,1015
2022-08-03T13:24:42.995Z,1015
2022-08-03T13:40:00.032Z,1014.7
2022-08-03T13:54:35.531Z,1014.6
2022-08-03T14:09:31.189Z,1014.5
2022-08-03T14:24:26.716Z,1014.3
2022-08-03T14:39:22.358Z,1014.1
2022-08-03T14:54:18.105Z,1014
2022-08-03T15:09:20.978Z,1013.9
2022-08-03T15:24:09.269Z,1013.8
2022-08-03T15:39:05.705Z,1013.6
2022-08-03T15:54:02.274Z,1013.5
2022-08-03T16:08:58.389Z,1013.4
2022-08-03T16:23:54.763Z,1013.3
2022-08-03T16:38:50.555Z,1013.2
2022-08-03T16:53:51.845Z,1013.2
2022-08-03T17:08:42.410Z,1013.2
2022-08-03T17:23:38.521Z,1013.3
2022-08-03T17:38:34.699Z,1013.3
2022-08-03T17:53:30.484Z,1013.3
2022-08-03T18:08:26.942Z,1013.3
2022-08-03T18:23:25.607Z,1013.3
2022-08-03T18:38:19.371Z,1013.3
2022-08-03T18:53:15.848Z,1013.4
2022-08-03T19:08:13.670Z,1013.5
2022-08-03T19:23:07.204Z,1013.7
2022-08-03T19:38:03.452Z,1013.8
2022-08-03T19:52:59.364Z,1013.8
2022-08-03T20:07:55.242Z,1013.8
2022-08-03T20:22:51.299Z,1013.9
2022-08-03T20:37:47.126Z,1014
2022-08-03T20:52:43.914Z,1014
2022-08-03T21:07:45.893Z,1013.9
2022-08-03T21:22:34.139Z,1013.9
2022-08-03T21:37:30.271Z,1013.8
2022-08-03T21:52:26.720Z,1013.8
2022-08-03T22:07:23.062Z,1013.9
2022-08-03T22:22:18.669Z,1013.8
2022-08-03T22:37:14.780Z,1013.8
2022-08-03T22:52:10.986Z,1013.9
2022-08-03T23:07:07.198Z,1013.9
2022-08-03T23:22:04.132Z,1013.9
2022-08-03T23:36:58.894Z,1014
2022-08-03T23:51:54.972Z,1013.9
